createdAt,value
2018-11-20T00:00:15.454Z,9.07
2018-11-20T00:03:02.009Z,9.87
2018-11-20T00:05:58.696Z,9.00
2018-11-20T00:08:49.188Z,9.53
2018-11-20T00:11:34.957Z,8.50
2018-11-20T00:14:21.404Z,8.70
2018-11-20T00:17:00.390Z,9.33
2018-11-20T00:19:46.540Z,9.50
2018-11-20T00:22:46.224Z,9.70
2018-11-20T00:25:36.613Z,9.50
2018-11-20T00:28:13.277Z,8.60
2018-11-20T00:30:57.702Z,8.70
2018-11-20T00:33:43.966Z,9.07
2018-11-20T00:36:30.220Z,9.40
2018-11-20T00:39:10.067Z,8.87
2018-11-20T00:41:48.900Z,9.80
2018-11-20T00:44:35.189Z,9.20
2018-11-20T00:47:21.572Z,9.33
2018-11-20T00:50:07.798Z,9.80
2018-11-20T00:52:59.837Z,9.20
2018-11-20T00:56:05.327Z,8.80
2018-11-20T00:59:04.812Z,8.80
2018-11-20T01:01:55.467Z,9.50
2018-11-20T01:04:46.127Z,9.10
2018-11-20T01:07:35.199Z,8.77
2018-11-20T01:10:21.653Z,9.70
2018-11-20T01:13:17.905Z,10.00
2018-11-20T01:16:04.279Z,10.13
2018-11-20T01:19:03.860Z,9.83
2018-11-20T01:21:50.630Z,10.10
2018-11-20T01:24:41.092Z,10.23
2018-11-20T01:27:27.195Z,9.63
2018-11-20T01:30:13.671Z,10.73
2018-11-20T01:33:01.386Z,11.50
2018-11-20T01:35:58.189Z,11.57
2018-11-20T01:38:45.922Z,10.50
2018-11-20T01:41:33.807Z,11.50
2018-11-20T01:44:24.561Z,14.93
2018-11-20T01:47:11.275Z,12.40
2018-11-20T01:49:53.240Z,11.53
2018-11-20T01:52:39.913Z,12.07
2018-11-20T01:55:30.547Z,13.30
2018-11-20T01:58:18.264Z,10.93
2018-11-20T02:01:15.000Z,12.23
2018-11-20T02:04:07.095Z,11.80
2018-11-20T02:06:53.813Z,12.73
2018-11-20T02:09:44.232Z,12.17
2018-11-20T02:12:31.964Z,11.80
2018-11-20T02:15:18.399Z,11.90
2018-11-20T02:18:23.420Z,12.07
2018-11-20T02:21:12.772Z,12.47
2018-11-20T02:24:00.512Z,12.20
2018-11-20T02:26:46.725Z,12.57
2018-11-20T02:29:32.857Z,12.87
2018-11-20T02:32:20.754Z,12.30
2018-11-20T02:35:06.747Z,11.70
2018-11-20T02:38:03.539Z,12.80
2018-11-20T02:40:49.748Z,13.67
2018-11-20T02:43:30.846Z,13.40
2018-11-20T02:46:18.571Z,16.03
2018-11-20T02:49:05.176Z,14.07
2018-11-20T02:52:01.654Z,15.60
2018-11-20T02:54:49.375Z,16.60
2018-11-20T02:57:32.995Z,16.57
2018-11-20T03:00:29.509Z,18.97
2018-11-20T03:03:08.284Z,17.03
2018-11-20T03:06:01.690Z,18.87
2018-11-20T03:08:48.070Z,17.40
2018-11-20T03:11:38.411Z,17.37
2018-11-20T03:14:32.892Z,18.67
2018-11-20T03:17:26.378Z,17.10
2018-11-20T03:20:23.127Z,17.43
2018-11-20T03:23:19.566Z,18.70
2018-11-20T03:26:13.397Z,18.27
2018-11-20T03:29:24.630Z,19.23
2018-11-20T03:32:12.343Z,18.43
2018-11-20T03:35:02.699Z,17.30
2018-11-20T03:37:43.805Z,17.47
2018-11-20T03:40:40.778Z,19.10
2018-11-20T03:43:27.172Z,17.20
2018-11-20T03:46:20.819Z,19.47
2018-11-20T03:49:22.884Z,17.33
2018-11-20T03:52:12.994Z,18.23
2018-11-20T03:55:03.591Z,18.20
2018-11-20T03:58:03.440Z,18.17
2018-11-20T04:01:06.362Z,17.43
2018-11-20T04:03:59.968Z,17.80
2018-11-20T04:06:53.671Z,18.67
2018-11-20T04:09:37.275Z,17.50
2018-11-20T04:12:40.002Z,16.87
2018-11-20T04:15:29.360Z,16.77
2018-11-20T04:18:19.722Z,16.87
2018-11-20T04:21:50.282Z,16.27
2018-11-20T04:24:42.614Z,18.33
2018-11-20T04:27:19.075Z,16.47
2018-11-20T04:30:06.548Z,17.67
2018-11-20T04:32:53.692Z,17.40
2018-11-20T04:38:12.100Z,17.80
2018-11-20T04:41:16.624Z,18.20
2018-11-20T04:46:57.590Z,16.03
2018-11-20T04:49:36.453Z,16.40
2018-11-20T04:52:28.496Z,16.00
2018-11-20T04:57:49.469Z,15.17
2018-11-20T05:06:07.496Z,16.63
2018-11-20T05:14:25.730Z,17.17
2018-11-20T05:17:12.709Z,22.00
2018-11-20T05:25:37.032Z,19.27
2018-11-20T05:28:15.786Z,17.37
2018-11-20T05:36:53.720Z,18.57
2018-11-20T06:09:50.062Z,16.97
2018-11-20T06:12:30.184Z,18.73
2018-11-20T06:26:40.677Z,20.77
2018-11-20T06:31:59.184Z,18.93
2018-11-20T06:34:58.898Z,17.77
2018-11-20T06:48:35.694Z,18.80
2018-11-20T06:57:21.283Z,19.60
2018-11-20T07:05:40.312Z,18.67
2018-11-20T07:08:40.127Z,19.63
2018-11-20T07:13:58.646Z,21.17
2018-11-20T07:16:58.283Z,19.80
2018-11-20T07:22:16.905Z,20.83
2018-11-20T07:25:18.313Z,21.60
2018-11-20T07:39:00.296Z,20.03
2018-11-20T07:47:24.390Z,19.43
2018-11-20T07:53:15.449Z,21.30
2018-11-20T07:56:15.251Z,21.57
2018-11-20T08:04:36.077Z,20.70
2018-11-20T08:09:54.523Z,22.60
2018-11-20T08:18:34.988Z,21.30
2018-11-20T08:21:13.709Z,21.77
2018-11-20T08:26:51.227Z,21.63
2018-11-20T08:35:45.089Z,23.43
2018-11-20T08:41:24.737Z,21.60
2018-11-20T08:44:03.559Z,25.13
2018-11-20T08:46:49.141Z,24.27
2018-11-20T09:00:26.958Z,25.33
2018-11-20T09:03:26.942Z,24.43
2018-11-20T09:22:35.346Z,26.30
2018-11-20T09:30:41.799Z,30.87
2018-11-20T09:38:49.873Z,30.97
2018-11-20T09:41:54.261Z,29.30
2018-11-20T09:47:13.292Z,29.37
2018-11-20T09:55:23.817Z,28.70
2018-11-20T10:06:46.567Z,32.20
2018-11-20T10:12:25.522Z,33.23
2018-11-20T10:15:05.446Z,31.27
2018-11-20T10:17:44.136Z,30.90
2018-11-20T10:26:01.025Z,34.50
2018-11-20T10:34:21.983Z,41.87
2018-11-20T10:37:05.742Z,34.27
2018-11-20T10:39:51.655Z,32.33
2018-11-20T10:42:30.027Z,32.60
2018-11-20T10:45:26.975Z,32.43
2018-11-20T10:48:12.641Z,34.53
2018-11-20T10:50:58.552Z,32.27
2018-11-20T10:53:45.814Z,37.17
2018-11-20T10:56:42.462Z,33.13
2018-11-20T10:59:47.796Z,32.07
2018-11-20T11:02:33.896Z,33.30
2018-11-20T11:05:19.921Z,34.20
2018-11-20T11:08:06.143Z,32.27
2018-11-20T11:10:53.422Z,33.40
2018-11-20T11:13:43.495Z,33.00
2018-11-20T11:16:49.021Z,30.67
2018-11-20T11:19:36.333Z,30.77
2018-11-20T11:22:23.680Z,32.23
2018-11-20T11:25:05.246Z,31.50
2018-11-20T11:27:51.388Z,30.97
2018-11-20T11:30:50.809Z,35.47
2018-11-20T11:33:38.151Z,36.23
2018-11-20T11:36:34.467Z,34.30
2018-11-20T11:39:20.787Z,33.37
2018-11-20T11:42:06.843Z,28.30
2018-11-20T11:45:06.045Z,33.43
2018-11-20T11:47:51.834Z,33.77
2018-11-20T11:50:36.346Z,31.90
2018-11-20T11:53:22.819Z,33.90
2018-11-20T11:56:18.975Z,34.00
2018-11-20T11:59:18.250Z,33.33
2018-11-20T12:04:59.397Z,34.40
2018-11-20T12:07:48.234Z,34.17
2018-11-20T12:10:36.401Z,32.80
2018-11-20T12:13:20.852Z,32.50
2018-11-20T12:16:06.721Z,38.80
2018-11-20T12:19:12.231Z,31.33
2018-11-20T12:22:06.052Z,32.77
2018-11-20T12:24:59.463Z,32.93
2018-11-20T12:27:45.613Z,34.13
2018-11-20T12:30:45.318Z,28.60
2018-11-20T12:33:35.614Z,33.67
2018-11-20T12:36:21.707Z,32.30
2018-11-20T12:39:07.681Z,30.60
2018-11-20T12:41:48.791Z,30.97
2018-11-20T12:44:38.976Z,31.53
2018-11-20T12:47:31.982Z,31.37
2018-11-20T12:50:26.215Z,30.40
2018-11-20T12:53:24.655Z,34.37
2018-11-20T12:56:11.051Z,32.87
2018-11-20T12:59:10.290Z,32.90
2018-11-20T13:01:57.609Z,29.93
2018-11-20T13:04:44.162Z,34.43
2018-11-20T13:07:34.424Z,33.40
2018-11-20T13:10:30.472Z,31.33
2018-11-20T13:13:18.057Z,32.40
2018-11-20T13:16:02.342Z,32.87
2018-11-20T13:18:44.112Z,32.97
2018-11-20T13:21:31.421Z,31.10
2018-11-20T13:24:24.823Z,31.40
2018-11-20T13:27:12.136Z,31.43
2018-11-20T13:30:00.992Z,34.33
2018-11-20T13:32:42.911Z,30.73
2018-11-20T13:35:25.239Z,30.20
2018-11-20T13:38:15.366Z,30.87
2018-11-20T13:41:20.356Z,31.50
2018-11-20T13:44:13.540Z,34.67
2018-11-20T13:46:59.673Z,32.23
2018-11-20T13:49:45.368Z,31.37
2018-11-20T13:52:24.791Z,30.43
2018-11-20T13:55:11.929Z,30.30
2018-11-20T13:58:02.259Z,30.87
2018-11-20T14:00:48.326Z,29.73
2018-11-20T14:03:29.910Z,31.17
2018-11-20T14:06:20.404Z,32.00
2018-11-20T14:09:16.629Z,33.73
2018-11-20T14:12:06.488Z,29.20
2018-11-20T14:14:52.767Z,31.53
2018-11-20T14:17:46.550Z,32.17
2018-11-20T14:20:46.257Z,30.23
2018-11-20T14:23:31.992Z,35.90
2018-11-20T14:26:19.368Z,31.47
2018-11-20T14:29:15.808Z,31.50
2018-11-20T14:32:02.015Z,31.87
2018-11-20T14:34:42.381Z,32.63
2018-11-20T14:37:28.640Z,34.63
2018-11-20T14:40:14.721Z,34.30
2018-11-20T14:43:00.825Z,32.10
2018-11-20T14:45:48.138Z,30.70
2018-11-20T14:48:34.237Z,33.47
2018-11-20T14:51:21.552Z,30.73
2018-11-20T14:54:07.990Z,35.37
2018-11-20T14:56:55.300Z,35.20
2018-11-20T14:59:51.231Z,32.90
2018-11-20T15:02:36.978Z,31.67
2018-11-20T15:05:23.794Z,34.27
2018-11-20T15:08:11.102Z,30.17
2018-11-20T15:10:58.772Z,36.23
2018-11-20T15:13:38.480Z,32.87
2018-11-20T15:16:21.962Z,34.90
2018-11-20T15:19:08.022Z,35.50
2018-11-20T15:21:55.376Z,38.83
2018-11-20T15:24:38.556Z,34.07
2018-11-20T15:27:17.114Z,38.70
2018-11-20T15:30:00.922Z,33.97
2018-11-20T15:32:47.010Z,34.33
2018-11-20T15:35:37.006Z,36.87
2018-11-20T15:38:27.231Z,34.37
2018-11-20T15:41:20.666Z,36.50
2018-11-20T15:44:06.824Z,39.57
2018-11-20T15:47:12.137Z,36.30
2018-11-20T15:49:51.342Z,35.33
2018-11-20T15:52:34.291Z,38.70
2018-11-20T15:55:20.046Z,38.23
2018-11-20T15:58:19.712Z,35.43
2018-11-20T16:01:05.986Z,36.33
2018-11-20T16:04:02.418Z,35.50
2018-11-20T16:07:01.546Z,37.27
2018-11-20T16:09:41.460Z,36.10
2018-11-20T16:12:34.853Z,39.73
2018-11-20T16:15:20.190Z,40.23
2018-11-20T16:18:10.385Z,38.33
2018-11-20T16:21:04.665Z,39.33
2018-11-20T16:24:01.111Z,37.43
2018-11-20T16:26:41.458Z,42.53
2018-11-20T16:29:40.945Z,39.27
2018-11-20T16:32:26.739Z,36.73
2018-11-20T16:35:12.829Z,41.37
2018-11-20T16:38:13.166Z,39.20
2018-11-20T16:40:59.407Z,44.43
2018-11-20T16:43:52.671Z,39.10
2018-11-20T16:46:35.225Z,42.43
2018-11-20T16:49:21.415Z,39.83
2018-11-20T16:52:24.065Z,39.20
2018-11-20T16:55:26.489Z,42.47
2018-11-20T16:58:32.139Z,40.03
2018-11-20T17:01:28.295Z,40.10
2018-11-20T17:04:29.851Z,37.63
2018-11-20T17:12:29.534Z,41.80
2018-11-20T17:17:56.947Z,39.60
2018-11-20T17:23:15.746Z,42.87
2018-11-20T17:26:15.503Z,40.43
2018-11-20T17:31:34.324Z,39.03
2018-11-20T17:34:34.217Z,37.13
2018-11-20T17:40:11.935Z,40.97
2018-11-20T17:57:32.333Z,37.37
2018-11-20T18:02:51.216Z,37.20
2018-11-20T18:05:50.950Z,38.63
2018-11-20T18:08:29.749Z,37.30
2018-11-20T18:11:19.650Z,39.20
2018-11-20T18:17:00.497Z,37.00
2018-11-20T18:22:39.341Z,33.33
2018-11-20T18:27:57.938Z,36.90
2018-11-20T18:36:30.074Z,37.23
2018-11-20T18:44:50.992Z,35.07
2018-11-20T18:47:29.395Z,36.40
2018-11-20T18:58:54.182Z,38.17
2018-11-20T19:01:32.421Z,32.67
2018-11-20T19:16:03.911Z,32.77
2018-11-20T19:21:54.877Z,33.83
2018-11-20T19:30:12.822Z,33.97
2018-11-20T19:35:50.777Z,30.23
2018-11-20T19:38:30.648Z,34.60
2018-11-20T19:43:49.185Z,31.03
2018-11-20T19:46:50.724Z,33.30
2018-11-20T19:52:29.442Z,32.47
2018-11-20T19:57:48.302Z,30.00
2018-11-20T20:00:47.696Z,30.77
2018-11-20T20:06:28.483Z,28.00
2018-11-20T20:14:49.579Z,31.63
2018-11-20T20:20:08.581Z,27.97
2018-11-20T20:25:50.755Z,27.77
2018-11-20T20:34:07.249Z,29.10
2018-11-20T20:42:48.083Z,28.60
2018-11-20T20:51:05.521Z,31.47
2018-11-20T20:54:05.124Z,28.90
2018-11-20T20:56:43.771Z,29.67
2018-11-20T21:05:20.831Z,29.83
2018-11-20T21:11:01.561Z,30.90
2018-11-20T21:14:02.983Z,29.37
2018-11-20T21:19:34.267Z,31.50
2018-11-20T21:24:53.049Z,28.73
2018-11-20T21:27:54.253Z,29.47
2018-11-20T21:33:13.041Z,30.57
2018-11-20T21:44:32.898Z,29.47
2018-11-20T21:49:51.530Z,29.37
2018-11-20T21:52:51.247Z,31.73
2018-11-20T21:58:30.212Z,31.37
2018-11-20T22:01:31.858Z,32.03
2018-11-20T22:04:10.772Z,32.93
2018-11-20T22:13:03.774Z,30.37
2018-11-20T22:15:42.190Z,31.60
2018-11-20T22:18:45.090Z,30.90
2018-11-20T22:24:26.572Z,32.37
2018-11-20T22:29:45.382Z,31.80
2018-11-20T22:32:47.274Z,32.17
2018-11-20T22:38:06.097Z,32.37
2018-11-20T22:40:47.416Z,32.77
2018-11-20T22:46:28.096Z,32.33
2018-11-20T22:51:46.409Z,33.00
2018-11-20T22:54:26.568Z,31.97
2018-11-20T23:00:07.507Z,35.60
2018-11-20T23:05:45.302Z,36.60
2018-11-20T23:08:24.042Z,35.70
2018-11-20T23:11:03.858Z,37.07
2018-11-20T23:16:22.326Z,40.70
2018-11-20T23:19:02.416Z,39.07
2018-11-20T23:48:22.185Z,35.83
2018-11-20T23:51:01.411Z,36.47
2018-11-20T23:53:40.480Z,37.07
2018-11-20T23:56:19.615Z,36.97
2018-11-20T23:58:58.693Z,37.73
